Time;durP1;ratioP1;P1;durP2;ratioP2;P2;SDS_P1;SDS_P2;PMS_P1;PMS_P2;Temp;Humidity;BMP_temperature;BMP_pressure;BME280_temperature;BME280_humidity;BME280_pressure;Samples;Min_cycle;Max_cycle;Signal;HPM_P1;HPM_P2
2022/12/16 00:02:16;;;;;;;32.83;19.75;;;;;;;-2.39;100.00;100956.69;4986315;28;20054;-65
2022/12/16 00:04:43;;;;;;;35.28;19.67;;;;;;;-2.33;100.00;100954.78;4995485;28;20069;-65
2022/12/16 00:07:09;;;;;;;36.63;20.20;;;;;;;-2.27;100.00;100959.69;4991770;28;20054;-66
2022/12/16 00:09:36;;;;;;;40.85;20.25;;;;;;;-2.22;100.00;100958.59;4989644;28;20058;-65
2022/12/16 00:12:03;;;;;;;31.83;18.75;;;;;;;-2.15;100.00;100963.50;4984311;28;20046;-65
2022/12/16 00:14:29;;;;;;;36.33;21.35;;;;;;;-2.16;100.00;100967.78;4969448;28;20098;-65
2022/12/16 00:16:55;;;;;;;32.55;19.85;;;;;;;-2.09;100.00;100966.66;4990250;28;20260;-65
2022/12/16 00:19:22;;;;;;;32.38;18.67;;;;;;;-2.11;100.00;100965.06;4984674;28;20863;-64
2022/12/16 00:21:48;;;;;;;38.38;20.85;;;;;;;-2.04;100.00;100977.59;4989347;28;20068;-64
2022/12/16 00:24:17;;;;;;;33.53;19.65;;;;;;;-2.02;100.00;100967.22;4988689;28;20060;-64
2022/12/16 00:26:43;;;;;;;32.08;18.73;;;;;;;-1.94;100.00;100974.63;4984529;28;20054;-63
2022/12/16 00:29:10;;;;;;;32.00;18.60;;;;;;;-1.88;100.00;100975.25;4992503;28;20100;-62
2022/12/16 00:31:36;;;;;;;39.30;20.08;;;;;;;-1.87;100.00;100978.63;4978836;28;20465;-62
2022/12/16 00:34:03;;;;;;;37.88;20.83;;;;;;;-1.83;100.00;100972.47;4984625;28;20457;-62
2022/12/16 00:36:29;;;;;;;33.95;19.67;;;;;;;-1.80;100.00;100974.94;4984394;28;20054;-63
2022/12/16 00:38:55;;;;;;;34.50;19.50;;;;;;;-1.76;100.00;100973.03;4981953;28;20649;-63
2022/12/16 00:41:22;;;;;;;33.28;20.50;;;;;;;-1.71;100.00;100971.94;4971424;28;20473;-62
2022/12/16 00:43:48;;;;;;;35.80;19.83;;;;;;;-1.67;100.00;100972.66;4983352;28;20614;-62
2022/12/16 00:46:14;;;;;;;33.85;19.25;;;;;;;-1.64;100.00;100975.94;4993061;28;20062;-62
2022/12/16 00:48:41;;;;;;;37.47;21.13;;;;;;;-1.64;100.00;100964.84;4983184;28;20580;-62
2022/12/16 00:51:07;;;;;;;33.47;19.45;;;;;;;-1.66;100.00;100964.06;4985121;28;20046;-63
2022/12/16 00:53:34;;;;;;;38.10;20.15;;;;;;;-1.69;100.00;100965.00;4989479;28;20551;-63
2022/12/16 00:56:06;;;;;;;35.05;19.60;;;;;;;-1.60;100.00;100968.94;4984682;28;20057;-62
2022/12/16 00:58:34;;;;;;;33.65;19.95;;;;;;;-1.61;100.00;100968.13;4987147;28;20138;-62
2022/12/16 01:01:01;;;;;;;32.97;19.33;;;;;;;-1.58;100.00;100967.13;4984129;28;20049;-63
2022/12/16 01:03:27;;;;;;;34.03;20.85;;;;;;;-1.62;100.00;100966.44;4995430;28;20046;-63
2022/12/16 01:05:54;;;;;;;35.17;20.67;;;;;;;-1.58;100.00;100977.44;4976560;28;20047;-63
2022/12/16 01:08:21;;;;;;;34.35;18.50;;;;;;;-1.54;100.00;100978.16;4967764;28;20108;-63
2022/12/16 01:10:52;;;;;;;34.55;19.63;;;;;;;-1.50;100.00;100972.78;4981210;28;20419;-64
2022/12/16 01:13:23;;;;;;;34.25;19.77;;;;;;;-1.50;100.00;100974.53;4984385;28;20070;-63
2022/12/16 01:15:49;;;;;;;32.55;19.13;;;;;;;-1.51;100.00;100971.13;4971397;28;20411;-63
2022/12/16 01:18:16;;;;;;;33.53;19.92;;;;;;;-1.49;100.00;100968.47;4981970;28;20058;-64
2022/12/16 01:20:43;;;;;;;34.42;19.60;;;;;;;-1.47;100.00;100974.38;4986359;28;20109;-63
2022/12/16 01:23:09;;;;;;;34.15;19.38;;;;;;;-1.49;100.00;100978.75;4982805;28;20092;-63
2022/12/16 01:25:35;;;;;;;37.70;20.52;;;;;;;-1.45;100.00;100988.03;4977081;28;20327;-64
2022/12/16 01:28:02;;;;;;;32.70;18.42;;;;;;;-1.48;100.00;100993.31;4976491;28;20050;-63
2022/12/16 01:30:28;;;;;;;43.08;21.45;;;;;;;-1.45;100.00;100996.59;4982131;28;20050;-63
2022/12/16 01:32:55;;;;;;;34.80;19.83;;;;;;;-1.41;100.00;100998.13;4981498;28;20061;-64
2022/12/16 01:35:21;;;;;;;34.53;19.58;;;;;;;-1.38;100.00;101004.88;4978619;28;20068;-63
2022/12/16 01:38:08;;;;;;;38.42;19.95;;;;;;;-1.33;100.00;101005.53;4968853;28;20081;-64
2022/12/16 01:40:34;;;;;;;36.47;20.58;;;;;;;-1.29;100.00;101004.50;4989667;28;20043;-63
2022/12/16 01:43:00;;;;;;;38.08;19.60;;;;;;;-1.25;100.00;101018.91;4969705;28;20043;-63
2022/12/16 01:45:34;;;;;;;37.10;20.13;;;;;;;-1.22;100.00;101013.59;4980583;28;20077;-61
2022/12/16 01:48:42;;;;;;;32.70;19.38;;;;;;;-1.20;100.00;101022.13;4978853;28;20517;-63
2022/12/16 01:51:15;;;;;;;35.35;20.80;;;;;;;-1.16;100.00;101029.69;4913933;29;20091;-61
2022/12/16 01:53:43;;;;;;;34.45;19.52;;;;;;;-1.20;100.00;101023.84;4931136;29;20095;-62
2022/12/16 01:56:13;;;;;;;31.83;19.92;;;;;;;-1.12;100.00;101026.91;4933204;29;20075;-62
2022/12/16 01:58:41;;;;;;;38.35;21.42;;;;;;;-1.18;100.00;101028.94;4924771;28;20110;-62
2022/12/16 02:01:08;;;;;;;34.80;21.13;;;;;;;-1.18;100.00;101034.91;4924288;29;20055;-64
2022/12/16 02:03:35;;;;;;;38.97;21.05;;;;;;;-1.17;100.00;101038.34;4919957;29;20717;-62
2022/12/16 02:06:05;;;;;;;36.28;20.67;;;;;;;-1.12;100.00;101038.97;4926131;29;20441;-62
2022/12/16 02:08:31;;;;;;;36.15;21.00;;;;;;;-1.09;100.00;101037.09;4920886;29;20202;-63
2022/12/16 02:11:21;;;;;;;36.88;20.20;;;;;;;-1.00;100.00;101036.72;4922701;29;20051;-61
2022/12/16 02:14:08;;;;;;;37.70;21.35;;;;;;;-0.96;100.00;101034.84;4919968;29;20048;-62
2022/12/16 02:17:03;;;;;;;35.97;21.20;;;;;;;-0.91;100.00;101043.19;4923105;29;20441;-61
2022/12/16 02:20:06;;;;;;;37.65;21.00;;;;;;;-0.92;100.00;101043.25;4923245;28;20051;-62
2022/12/16 02:23:09;;;;;;;36.00;20.42;;;;;;;-0.92;100.00;101048.38;4938066;29;20115;-62
2022/12/16 02:26:10;;;;;;;37.22;22.17;;;;;;;-0.92;100.00;101040.66;4935274;28;20054;-62
2022/12/16 02:28:55;;;;;;;37.33;20.33;;;;;;;-0.96;100.00;101047.72;4980673;28;20108;-61
2022/12/16 02:31:46;;;;;;;39.78;21.10;;;;;;;-0.87;100.00;101046.47;4975389;28;20430;-62
2022/12/16 02:34:35;;;;;;;36.50;20.70;;;;;;;-0.87;100.00;101057.59;4986835;28;20050;-61
2022/12/16 02:37:18;;;;;;;32.55;19.52;;;;;;;-0.87;100.00;101046.47;4980490;28;20113;-62
2022/12/16 02:39:54;;;;;;;35.63;20.45;;;;;;;-0.82;100.00;101050.50;4982416;28;20057;-64
2022/12/16 02:42:33;;;;;;;35.55;21.20;;;;;;;-0.76;100.00;101053.72;4979600;28;20058;-64
2022/12/16 02:45:16;;;;;;;34.80;20.98;;;;;;;-0.74;100.00;101045.03;4969548;28;20069;-64
2022/12/16 02:47:44;;;;;;;34.70;21.58;;;;;;;-0.76;100.00;101052.00;4978336;28;20058;-63
2022/12/16 02:50:21;;;;;;;40.30;22.83;;;;;;;-0.75;100.00;101043.34;4994913;28;20503;-61
2022/12/16 02:52:49;;;;;;;37.03;21.55;;;;;;;-0.75;100.00;101052.81;4985190;28;20064;-62
2022/12/16 02:55:15;;;;;;;41.80;21.63;;;;;;;-0.74;100.00;101055.34;4972276;28;20408;-62
2022/12/16 02:58:03;;;;;;;35.15;20.70;;;;;;;-0.72;100.00;101058.66;4962644;28;20058;-61
2022/12/16 03:00:40;;;;;;;38.05;22.05;;;;;;;-0.71;100.00;101054.34;4989119;28;20392;-61
2022/12/16 03:03:23;;;;;;;38.72;21.52;;;;;;;-0.73;100.00;101048.44;4985586;28;20478;-62
2022/12/16 03:05:51;;;;;;;37.17;21.63;;;;;;;-0.70;100.00;101056.03;4976722;28;20046;-61
2022/12/16 03:08:27;;;;;;;40.80;21.98;;;;;;;-0.65;100.00;101060.09;4980822;28;20050;-64
2022/12/16 03:10:58;;;;;;;34.65;20.98;;;;;;;-0.62;100.00;101059.09;4967925;28;20050;-62
2022/12/16 03:13:28;;;;;;;42.55;21.83;;;;;;;-0.60;100.00;101065.03;4982649;28;20052;-62
2022/12/16 03:15:57;;;;;;;39.60;21.55;;;;;;;-0.60;100.00;101065.84;4991431;28;20100;-61
2022/12/16 03:18:25;;;;;;;37.33;21.83;;;;;;;-0.58;100.00;101070.09;4980715;28;20060;-62
2022/12/16 03:21:00;;;;;;;35.75;22.17;;;;;;;-0.58;100.00;101067.53;4989960;28;20047;-62
2022/12/16 03:23:35;;;;;;;35.65;20.80;;;;;;;-0.59;100.00;101066.69;4977663;28;20109;-62
2022/12/16 03:26:14;;;;;;;41.25;22.95;;;;;;;-0.56;100.00;101073.44;4974132;28;20051;-62
2022/12/16 03:28:49;;;;;;;39.20;21.50;;;;;;;-0.58;100.00;101076.09;4984373;28;20065;-61
2022/12/16 03:31:38;;;;;;;41.33;23.20;;;;;;;-0.58;100.00;101078.66;4991338;28;20100;-61
2022/12/16 03:34:15;;;;;;;41.25;20.33;;;;;;;-0.55;100.00;101077.69;4980913;28;20050;-61
2022/12/16 03:36:44;;;;;;;38.03;21.83;;;;;;;-0.53;100.00;101093.91;4984632;28;20064;-61
2022/12/16 03:39:12;;;;;;;45.88;23.10;;;;;;;-0.55;100.00;101080.25;4990093;28;20042;-61
2022/12/16 03:41:42;;;;;;;41.60;22.45;;;;;;;-0.51;100.00;101092.97;5003149;28;20046;-61
2022/12/16 03:44:09;;;;;;;40.63;21.15;;;;;;;-0.50;100.00;101102.34;4988925;28;20046;-61
2022/12/16 03:46:36;;;;;;;37.35;21.92;;;;;;;-0.52;100.00;101098.19;4987126;28;20510;-62
2022/12/16 03:49:02;;;;;;;45.15;21.65;;;;;;;-0.54;100.00;101107.72;4986895;28;20047;-62
2022/12/16 03:51:29;;;;;;;37.58;22.33;;;;;;;-0.58;100.00;101107.00;4984801;28;20057;-62
2022/12/16 03:53:55;;;;;;;39.70;22.17;;;;;;;-0.60;100.00;101107.06;4991755;28;20053;-64
2022/12/16 03:56:22;;;;;;;39.70;23.00;;;;;;;-0.55;100.00;101113.75;4990757;28;20042;-61
2022/12/16 03:58:48;;;;;;;33.92;20.80;;;;;;;-0.57;100.00;101113.00;4992518;28;20046;-61
2022/12/16 04:01:15;;;;;;;41.35;22.20;;;;;;;-0.55;100.00;101119.75;4994028;28;20823;-61
2022/12/16 04:03:41;;;;;;;39.33;22.85;;;;;;;-0.52;100.00;101119.63;4985705;28;20054;-62
2022/12/16 04:06:08;;;;;;;42.90;22.45;;;;;;;-0.50;100.00;101122.97;4987444;28;20054;-61
2022/12/16 04:08:34;;;;;;;36.60;23.15;;;;;;;-0.48;100.00;101116.00;4985333;28;20054;-62
2022/12/16 04:25:17;;;;;;;36.15;22.45;;;;;;;-0.34;100.00;101130.84;4988774;28;20049;-62
2022/12/16 04:27:45;;;;;;;41.00;22.55;;;;;;;-0.38;100.00;101131.91;4970518;28;20053;-62
2022/12/16 04:30:20;;;;;;;43.83;23.65;;;;;;;-0.32;100.00;101131.63;4997170;28;20152;-62
